sensor_id;sensor_type;location;lat;lon;timestamp;P1;durP1;ratioP1;P2;durP2;ratioP2
40637;SDS011;26336;44.696;10.622;2022-08-01T00:01:05;2.60;;;1.77;;
40637;SDS011;26336;44.696;10.622;2022-08-01T00:04:09;2.85;;;1.85;;
40637;SDS011;26336;44.696;10.622;2022-08-01T00:07:13;2.50;;;2.03;;
40637;SDS011;26336;44.696;10.622;2022-08-01T00:10:17;3.85;;;2.15;;
40637;SDS011;26336;44.696;10.622;2022-08-01T00:13:21;4.30;;;1.83;;
40637;SDS011;26336;44.696;10.622;2022-08-01T00:16:26;2.30;;;2.00;;
40637;SDS011;26336;44.696;10.622;2022-08-01T00:19:30;2.38;;;2.17;;
40637;SDS011;26336;44.696;10.622;2022-08-01T00:22:34;2.20;;;2.00;;
40637;SDS011;26336;44.696;10.622;2022-08-01T00:25:38;2.05;;;1.70;;
40637;SDS011;26336;44.696;10.622;2022-08-01T00:28:42;3.22;;;2.08;;
40637;SDS011;26336;44.696;10.622;2022-08-01T00:31:46;2.65;;;2.00;;
40637;SDS011;26336;44.696;10.622;2022-08-01T00:34:49;2.35;;;1.80;;
40637;SDS011;26336;44.696;10.622;2022-08-01T00:37:53;2.30;;;1.85;;
40637;SDS011;26336;44.696;10.622;2022-08-01T00:40:58;2.70;;;2.00;;
40637;SDS011;26336;44.696;10.622;2022-08-01T00:44:03;4.78;;;2.03;;
40637;SDS011;26336;44.696;10.622;2022-08-01T00:47:08;1.98;;;1.60;;
40637;SDS011;26336;44.696;10.622;2022-08-01T00:50:12;2.92;;;1.98;;
40637;SDS011;26336;44.696;10.622;2022-08-01T00:53:16;1.90;;;1.77;;
40637;SDS011;26336;44.696;10.622;2022-08-01T00:56:20;2.47;;;1.38;;
40637;SDS011;26336;44.696;10.622;2022-08-01T00:59:27;3.75;;;1.98;;
40637;SDS011;26336;44.696;10.622;2022-08-01T01:02:31;2.22;;;1.75;;
40637;SDS011;26336;44.696;10.622;2022-08-01T01:05:38;3.55;;;1.88;;
40637;SDS011;26336;44.696;10.622;2022-08-01T01:12:37;2.85;;;1.70;;
40637;SDS011;26336;44.696;10.622;2022-08-01T01:15:47;2.97;;;1.80;;
40637;SDS011;26336;44.696;10.622;2022-08-01T01:19:00;2.33;;;2.00;;
40637;SDS011;26336;44.696;10.622;2022-08-01T01:22:14;2.67;;;2.03;;
40637;SDS011;26336;44.696;10.622;2022-08-01T01:32:17;1.80;;;1.70;;
40637;SDS011;26336;44.696;10.622;2022-08-01T01:35:41;2.75;;;2.10;;
40637;SDS011;26336;44.696;10.622;2022-08-01T01:38:49;3.63;;;1.65;;
40637;SDS011;26336;44.696;10.622;2022-08-01T01:41:55;3.00;;;1.80;;
40637;SDS011;26336;44.696;10.622;2022-08-01T01:45:01;2.47;;;1.98;;
40637;SDS011;26336;44.696;10.622;2022-08-01T01:48:07;3.97;;;1.80;;
40637;SDS011;26336;44.696;10.622;2022-08-01T01:51:13;2.08;;;1.88;;
40637;SDS011;26336;44.696;10.622;2022-08-01T01:54:19;2.47;;;1.90;;
40637;SDS011;26336;44.696;10.622;2022-08-01T01:57:26;3.30;;;1.95;;
40637;SDS011;26336;44.696;10.622;2022-08-01T02:00:32;1.80;;;1.70;;
40637;SDS011;26336;44.696;10.622;2022-08-01T02:03:38;3.15;;;1.77;;
40637;SDS011;26336;44.696;10.622;2022-08-01T02:06:45;2.28;;;1.80;;
40637;SDS011;26336;44.696;10.622;2022-08-01T02:09:49;1.70;;;1.60;;
40637;SDS011;26336;44.696;10.622;2022-08-01T02:12:57;5.65;;;1.60;;
40637;SDS011;26336;44.696;10.622;2022-08-01T02:16:03;2.22;;;1.73;;
40637;SDS011;26336;44.696;10.622;2022-08-01T02:19:08;2.20;;;1.63;;
40637;SDS011;26336;44.696;10.622;2022-08-01T02:22:18;2.38;;;1.80;;
40637;SDS011;26336;44.696;10.622;2022-08-01T02:25:34;3.90;;;1.70;;
40637;SDS011;26336;44.696;10.622;2022-08-01T02:28:59;2.58;;;1.75;;
40637;SDS011;26336;44.696;10.622;2022-08-01T02:32:12;2.83;;;2.15;;
40637;SDS011;26336;44.696;10.622;2022-08-01T02:35:28;2.08;;;1.70;;
40637;SDS011;26336;44.696;10.622;2022-08-01T02:38:36;4.20;;;2.38;;
40637;SDS011;26336;44.696;10.622;2022-08-01T02:41:45;2.10;;;1.80;;
40637;SDS011;26336;44.696;10.622;2022-08-01T02:44:52;2.88;;;1.50;;
40637;SDS011;26336;44.696;10.622;2022-08-01T02:47:59;2.55;;;1.88;;
40637;SDS011;26336;44.696;10.622;2022-08-01T02:51:07;2.33;;;1.80;;
40637;SDS011;26336;44.696;10.622;2022-08-01T02:54:12;2.47;;;1.85;;
40637;SDS011;26336;44.696;10.622;2022-08-01T02:57:20;3.10;;;2.05;;
40637;SDS011;26336;44.696;10.622;2022-08-01T03:00:27;2.72;;;2.10;;
40637;SDS011;26336;44.696;10.622;2022-08-01T03:03:33;5.00;;;2.03;;
40637;SDS011;26336;44.696;10.622;2022-08-01T03:06:38;2.35;;;2.00;;
40637;SDS011;26336;44.696;10.622;2022-08-01T03:09:44;4.60;;;1.83;;
40637;SDS011;26336;44.696;10.622;2022-08-01T03:12:49;3.95;;;2.08;;
40637;SDS011;26336;44.696;10.622;2022-08-01T03:15:54;2.97;;;1.70;;
40637;SDS011;26336;44.696;10.622;2022-08-01T03:19:00;2.40;;;1.88;;
40637;SDS011;26336;44.696;10.622;2022-08-01T03:22:07;6.15;;;1.85;;
40637;SDS011;26336;44.696;10.622;2022-08-01T03:25:13;5.13;;;2.10;;
40637;SDS011;26336;44.696;10.622;2022-08-01T03:28:19;3.33;;;2.40;;
40637;SDS011;26336;44.696;10.622;2022-08-01T03:31:25;4.30;;;2.47;;
40637;SDS011;26336;44.696;10.622;2022-08-01T03:34:29;2.97;;;2.20;;
40637;SDS011;26336;44.696;10.622;2022-08-01T03:37:47;3.53;;;2.15;;
40637;SDS011;26336;44.696;10.622;2022-08-01T03:40:55;3.38;;;2.70;;
40637;SDS011;26336;44.696;10.622;2022-08-01T03:44:03;3.38;;;2.50;;
40637;SDS011;26336;44.696;10.622;2022-08-01T03:47:11;3.83;;;3.28;;
40637;SDS011;26336;44.696;10.622;2022-08-01T03:50:16;3.40;;;2.95;;
40637;SDS011;26336;44.696;10.622;2022-08-01T03:53:24;6.55;;;3.17;;
40637;SDS011;26336;44.696;10.622;2022-08-01T03:56:32;5.35;;;3.20;;
40637;SDS011;26336;44.696;10.622;2022-08-01T03:59:37;2.92;;;2.60;;
40637;SDS011;26336;44.696;10.622;2022-08-01T04:02:41;3.50;;;2.95;;
40637;SDS011;26336;44.696;10.622;2022-08-01T04:05:45;6.18;;;3.00;;
40637;SDS011;26336;44.696;10.622;2022-08-01T04:08:49;5.28;;;2.80;;
40637;SDS011;26336;44.696;10.622;2022-08-01T04:12:00;5.50;;;3.40;;
40637;SDS011;26336;44.696;10.622;2022-08-01T04:15:04;7.13;;;3.30;;
40637;SDS011;26336;44.696;10.622;2022-08-01T04:18:09;3.15;;;2.85;;
40637;SDS011;26336;44.696;10.622;2022-08-01T04:21:13;3.60;;;2.97;;
40637;SDS011;26336;44.696;10.622;2022-08-01T04:24:20;4.82;;;3.22;;
40637;SDS011;26336;44.696;10.622;2022-08-01T04:27:28;5.35;;;2.65;;
40637;SDS011;26336;44.696;10.622;2022-08-01T04:30:36;3.33;;;3.00;;
40637;SDS011;26336;44.696;10.622;2022-08-01T04:33:43;4.70;;;2.95;;
40637;SDS011;26336;44.696;10.622;2022-08-01T04:36:54;3.53;;;2.83;;
40637;SDS011;26336;44.696;10.622;2022-08-01T04:39:59;5.68;;;3.05;;
40637;SDS011;26336;44.696;10.622;2022-08-01T04:43:04;3.35;;;2.83;;
40637;SDS011;26336;44.696;10.622;2022-08-01T04:46:09;3.33;;;3.03;;
40637;SDS011;26336;44.696;10.622;2022-08-01T04:49:15;4.50;;;3.20;;
40637;SDS011;26336;44.696;10.622;2022-08-01T04:52:19;5.25;;;3.20;;
40637;SDS011;26336;44.696;10.622;2022-08-01T04:55:23;3.90;;;3.05;;
40637;SDS011;26336;44.696;10.622;2022-08-01T04:58:27;3.38;;;2.88;;
40637;SDS011;26336;44.696;10.622;2022-08-01T05:01:31;5.15;;;3.03;;
40637;SDS011;26336;44.696;10.622;2022-08-01T05:04:36;4.90;;;2.90;;
40637;SDS011;26336;44.696;10.622;2022-08-01T05:07:41;4.65;;;3.13;;
40637;SDS011;26336;44.696;10.622;2022-08-01T05:10:45;3.15;;;2.85;;
40637;SDS011;26336;44.696;10.622;2022-08-01T05:13:49;6.60;;;3.35;;
40637;SDS011;26336;44.696;10.622;2022-08-01T05:16:54;3.60;;;2.80;;
40637;SDS011;26336;44.696;10.622;2022-08-01T05:19:59;3.95;;;2.83;;
40637;SDS011;26336;44.696;10.622;2022-08-01T05:23:06;4.53;;;2.85;;
40637;SDS011;26336;44.696;10.622;2022-08-01T05:26:10;5.90;;;2.30;;
40637;SDS011;26336;44.696;10.622;2022-08-01T05:29:15;3.38;;;2.60;;
40637;SDS011;26336;44.696;10.622;2022-08-01T05:32:19;3.90;;;2.30;;
40637;SDS011;26336;44.696;10.622;2022-08-01T05:35:22;3.05;;;2.50;;
40637;SDS011;26336;44.696;10.622;2022-08-01T05:38:26;3.60;;;2.72;;
40637;SDS011;26336;44.696;10.622;2022-08-01T05:41:31;3.88;;;2.75;;
40637;SDS011;26336;44.696;10.622;2022-08-01T05:44:35;4.53;;;3.10;;
40637;SDS011;26336;44.696;10.622;2022-08-01T05:47:39;4.45;;;2.50;;
40637;SDS011;26336;44.696;10.622;2022-08-01T05:50:43;4.78;;;2.58;;
40637;SDS011;26336;44.696;10.622;2022-08-01T05:53:47;3.53;;;2.58;;
40637;SDS011;26336;44.696;10.622;2022-08-01T05:56:51;4.93;;;2.70;;
40637;SDS011;26336;44.696;10.622;2022-08-01T05:59:55;2.85;;;2.28;;
40637;SDS011;26336;44.696;10.622;2022-08-01T06:02:59;4.55;;;2.22;;
40637;SDS011;26336;44.696;10.622;2022-08-01T06:06:03;3.28;;;2.60;;
40637;SDS011;26336;44.696;10.622;2022-08-01T06:09:07;3.33;;;2.63;;
40637;SDS011;26336;44.696;10.622;2022-08-01T06:12:11;3.40;;;2.40;;
40637;SDS011;26336;44.696;10.622;2022-08-01T06:15:15;4.20;;;2.60;;
40637;SDS011;26336;44.696;10.622;2022-08-01T06:18:19;3.05;;;2.53;;
40637;SDS011;26336;44.696;10.622;2022-08-01T06:21:23;3.65;;;2.63;;
40637;SDS011;26336;44.696;10.622;2022-08-01T06:24:27;4.85;;;2.72;;
40637;SDS011;26336;44.696;10.622;2022-08-01T06:27:33;3.05;;;2.40;;
40637;SDS011;26336;44.696;10.622;2022-08-01T06:30:38;4.15;;;2.80;;
40637;SDS011;26336;44.696;10.622;2022-08-01T06:33:42;3.20;;;2.40;;
40637;SDS011;26336;44.696;10.622;2022-08-01T06:36:46;2.97;;;2.28;;
40637;SDS011;26336;44.696;10.622;2022-08-01T06:39:50;3.10;;;2.78;;
40637;SDS011;26336;44.696;10.622;2022-08-01T06:42:54;3.10;;;2.30;;
40637;SDS011;26336;44.696;10.622;2022-08-01T06:45:58;4.75;;;2.40;;
40637;SDS011;26336;44.696;10.622;2022-08-01T06:49:02;3.85;;;2.50;;
40637;SDS011;26336;44.696;10.622;2022-08-01T06:52:06;4.03;;;2.50;;
40637;SDS011;26336;44.696;10.622;2022-08-01T06:55:10;2.97;;;2.28;;
40637;SDS011;26336;44.696;10.622;2022-08-01T06:58:15;3.15;;;2.50;;
40637;SDS011;26336;44.696;10.622;2022-08-01T07:01:19;3.67;;;2.30;;
40637;SDS011;26336;44.696;10.622;2022-08-01T07:04:23;4.72;;;2.42;;
40637;SDS011;26336;44.696;10.622;2022-08-01T07:07:27;5.30;;;1.98;;
40637;SDS011;26336;44.696;10.622;2022-08-01T07:10:31;4.13;;;2.13;;
40637;SDS011;26336;44.696;10.622;2022-08-01T07:13:35;3.03;;;2.17;;
40637;SDS011;26336;44.696;10.622;2022-08-01T07:16:38;5.97;;;2.28;;
40637;SDS011;26336;44.696;10.622;2022-08-01T07:19:42;3.53;;;2.15;;
40637;SDS011;26336;44.696;10.622;2022-08-01T07:22:46;3.90;;;1.67;;
40637;SDS011;26336;44.696;10.622;2022-08-01T07:25:50;1.98;;;1.88;;
40637;SDS011;26336;44.696;10.622;2022-08-01T07:28:56;6.55;;;2.45;;
40637;SDS011;26336;44.696;10.622;2022-08-01T07:31:59;2.92;;;2.50;;
40637;SDS011;26336;44.696;10.622;2022-08-01T07:35:03;3.42;;;2.15;;
40637;SDS011;26336;44.696;10.622;2022-08-01T07:38:08;3.40;;;2.13;;
40637;SDS011;26336;44.696;10.622;2022-08-01T07:41:12;2.60;;;1.92;;
40637;SDS011;26336;44.696;10.622;2022-08-01T07:44:16;4.60;;;2.38;;
40637;SDS011;26336;44.696;10.622;2022-08-01T07:47:26;5.30;;;2.33;;
40637;SDS011;26336;44.696;10.622;2022-08-01T07:50:30;5.45;;;2.20;;
40637;SDS011;26336;44.696;10.622;2022-08-01T07:53:34;5.20;;;2.60;;
40637;SDS011;26336;44.696;10.622;2022-08-01T07:56:38;3.95;;;2.47;;
40637;SDS011;26336;44.696;10.622;2022-08-01T07:59:43;3.08;;;2.38;;
40637;SDS011;26336;44.696;10.622;2022-08-01T08:02:47;3.00;;;2.20;;
40637;SDS011;26336;44.696;10.622;2022-08-01T08:05:51;6.50;;;2.45;;
40637;SDS011;26336;44.696;10.622;2022-08-01T08:08:55;1.92;;;1.80;;
40637;SDS011;26336;44.696;10.622;2022-08-01T08:11:59;4.07;;;2.20;;
40637;SDS011;26336;44.696;10.622;2022-08-01T08:15:03;3.78;;;2.00;;
40637;SDS011;26336;44.696;10.622;2022-08-01T08:18:09;3.17;;;2.45;;
40637;SDS011;26336;44.696;10.622;2022-08-01T08:21:13;3.33;;;2.13;;
40637;SDS011;26336;44.696;10.622;2022-08-01T08:24:17;3.30;;;2.03;;
40637;SDS011;26336;44.696;10.622;2022-08-01T08:27:25;4.78;;;2.47;;
40637;SDS011;26336;44.696;10.622;2022-08-01T08:30:29;3.45;;;2.20;;
40637;SDS011;26336;44.696;10.622;2022-08-01T08:33:33;4.57;;;2.15;;
40637;SDS011;26336;44.696;10.622;2022-08-01T08:36:37;3.78;;;2.38;;
40637;SDS011;26336;44.696;10.622;2022-08-01T08:39:41;6.97;;;2.92;;
40637;SDS011;26336;44.696;10.622;2022-08-01T08:42:45;6.28;;;2.22;;
40637;SDS011;26336;44.696;10.622;2022-08-01T08:45:50;6.40;;;2.22;;
40637;SDS011;26336;44.696;10.622;2022-08-01T08:48:55;2.30;;;1.70;;
40637;SDS011;26336;44.696;10.622;2022-08-01T08:52:00;3.10;;;2.10;;
40637;SDS011;26336;44.696;10.622;2022-08-01T08:55:05;8.27;;;3.15;;
40637;SDS011;26336;44.696;10.622;2022-08-01T08:58:11;2.20;;;2.00;;
40637;SDS011;26336;44.696;10.622;2022-08-01T09:01:17;7.03;;;2.58;;
40637;SDS011;26336;44.696;10.622;2022-08-01T09:04:22;9.77;;;2.83;;
40637;SDS011;26336;44.696;10.622;2022-08-01T09:07:26;4.60;;;2.30;;
40637;SDS011;26336;44.696;10.622;2022-08-01T09:10:30;2.47;;;2.00;;
40637;SDS011;26336;44.696;10.622;2022-08-01T09:13:34;6.03;;;2.50;;
40637;SDS011;26336;44.696;10.622;2022-08-01T09:16:42;2.88;;;1.98;;
40637;SDS011;26336;44.696;10.622;2022-08-01T09:19:49;4.53;;;2.50;;
40637;SDS011;26336;44.696;10.622;2022-08-01T09:22:57;2.22;;;1.90;;
40637;SDS011;26336;44.696;10.622;2022-08-01T09:26:01;3.75;;;1.92;;
40637;SDS011;26336;44.696;10.622;2022-08-01T09:29:06;3.47;;;2.35;;
40637;SDS011;26336;44.696;10.622;2022-08-01T09:32:20;4.05;;;2.00;;
40637;SDS011;26336;44.696;10.622;2022-08-01T09:38:29;3.08;;;1.80;;
40637;SDS011;26336;44.696;10.622;2022-08-01T09:41:33;2.72;;;2.08;;
40637;SDS011;26336;44.696;10.622;2022-08-01T09:44:38;3.50;;;2.08;;
40637;SDS011;26336;44.696;10.622;2022-08-01T09:47:44;3.13;;;2.13;;
40637;SDS011;26336;44.696;10.622;2022-08-01T09:50:48;4.95;;;2.08;;
40637;SDS011;26336;44.696;10.622;2022-08-01T09:53:53;3.28;;;2.42;;
40637;SDS011;26336;44.696;10.622;2022-08-01T10:00:33;3.92;;;2.28;;
40637;SDS011;26336;44.696;10.622;2022-08-01T10:03:38;5.22;;;1.88;;
40637;SDS011;26336;44.696;10.622;2022-08-01T10:06:43;4.15;;;1.88;;
40637;SDS011;26336;44.696;10.622;2022-08-01T10:09:48;3.47;;;1.67;;
40637;SDS011;26336;44.696;10.622;2022-08-01T10:12:52;3.20;;;1.77;;
40637;SDS011;26336;44.696;10.622;2022-08-01T10:16:00;3.40;;;1.83;;
40637;SDS011;26336;44.696;10.622;2022-08-01T10:19:06;1.92;;;1.73;;
40637;SDS011;26336;44.696;10.622;2022-08-01T10:22:12;3.33;;;1.85;;
40637;SDS011;26336;44.696;10.622;2022-08-01T10:25:20;2.55;;;1.90;;
40637;SDS011;26336;44.696;10.622;2022-08-01T10:28:25;2.85;;;1.55;;
40637;SDS011;26336;44.696;10.622;2022-08-01T10:31:30;1.98;;;1.77;;
40637;SDS011;26336;44.696;10.622;2022-08-01T10:34:36;5.93;;;1.90;;
40637;SDS011;26336;44.696;10.622;2022-08-01T10:37:41;5.13;;;2.08;;
40637;SDS011;26336;44.696;10.622;2022-08-01T10:40:46;2.90;;;1.67;;
40637;SDS011;26336;44.696;10.622;2022-08-01T10:43:51;2.13;;;1.70;;
40637;SDS011;26336;44.696;10.622;2022-08-01T10:47:18;2.00;;;1.67;;
40637;SDS011;26336;44.696;10.622;2022-08-01T10:50:33;1.75;;;1.50;;
40637;SDS011;26336;44.696;10.622;2022-08-01T10:53:45;3.53;;;1.58;;
40637;SDS011;26336;44.696;10.622;2022-08-01T10:56:51;3.88;;;2.00;;
40637;SDS011;26336;44.696;10.622;2022-08-01T10:59:55;1.73;;;1.63;;
40637;SDS011;26336;44.696;10.622;2022-08-01T11:03:04;2.55;;;1.50;;
40637;SDS011;26336;44.696;10.622;2022-08-01T11:06:17;2.42;;;1.90;;
40637;SDS011;26336;44.696;10.622;2022-08-01T11:09:27;3.38;;;2.10;;
40637;SDS011;26336;44.696;10.622;2022-08-01T11:12:41;3.88;;;2.10;;
40637;SDS011;26336;44.696;10.622;2022-08-01T11:15:46;2.83;;;2.05;;
40637;SDS011;26336;44.696;10.622;2022-08-01T11:18:50;2.83;;;1.80;;
40637;SDS011;26336;44.696;10.622;2022-08-01T11:24:58;4.90;;;1.67;;
40637;SDS011;26336;44.696;10.622;2022-08-01T11:35:12;3.47;;;1.90;;
40637;SDS011;26336;44.696;10.622;2022-08-01T11:41:28;4.15;;;2.10;;
40637;SDS011;26336;44.696;10.622;2022-08-01T11:44:47;5.25;;;2.10;;
40637;SDS011;26336;44.696;10.622;2022-08-01T11:47:52;4.30;;;2.38;;
40637;SDS011;26336;44.696;10.622;2022-08-01T11:50:57;3.42;;;1.65;;
40637;SDS011;26336;44.696;10.622;2022-08-01T11:54:01;4.25;;;1.88;;
40637;SDS011;26336;44.696;10.622;2022-08-01T11:57:10;2.08;;;1.98;;
40637;SDS011;26336;44.696;10.622;2022-08-01T12:00:18;3.92;;;1.80;;
40637;SDS011;26336;44.696;10.622;2022-08-01T12:03:26;2.45;;;1.80;;
40637;SDS011;26336;44.696;10.622;2022-08-01T12:06:35;1.90;;;1.70;;
40637;SDS011;26336;44.696;10.622;2022-08-01T12:09:39;2.50;;;1.58;;
40637;SDS011;26336;44.696;10.622;2022-08-01T12:12:44;3.55;;;1.90;;
40637;SDS011;26336;44.696;10.622;2022-08-01T12:15:49;4.03;;;1.90;;
40637;SDS011;26336;44.696;10.622;2022-08-01T12:18:53;1.73;;;1.30;;
40637;SDS011;26336;44.696;10.622;2022-08-01T12:25:16;3.97;;;1.80;;
40637;SDS011;26336;44.696;10.622;2022-08-01T12:28:21;2.90;;;1.40;;
40637;SDS011;26336;44.696;10.622;2022-08-01T12:31:32;1.80;;;1.58;;
40637;SDS011;26336;44.696;10.622;2022-08-01T12:34:37;2.03;;;1.83;;
40637;SDS011;26336;44.696;10.622;2022-08-01T12:37:42;2.88;;;1.70;;
40637;SDS011;26336;44.696;10.622;2022-08-01T12:40:51;2.78;;;1.77;;
40637;SDS011;26336;44.696;10.622;2022-08-01T12:43:54;2.38;;;1.75;;
40637;SDS011;26336;44.696;10.622;2022-08-01T12:46:58;3.33;;;1.67;;
40637;SDS011;26336;44.696;10.622;2022-08-01T12:50:07;2.90;;;1.67;;
40637;SDS011;26336;44.696;10.622;2022-08-01T12:53:15;2.65;;;1.88;;
40637;SDS011;26336;44.696;10.622;2022-08-01T12:56:30;2.88;;;1.58;;
40637;SDS011;26336;44.696;10.622;2022-08-01T12:59:36;1.77;;;1.30;;
40637;SDS011;26336;44.696;10.622;2022-08-01T13:02:40;1.65;;;1.40;;
40637;SDS011;26336;44.696;10.622;2022-08-01T13:08:55;2.13;;;1.83;;
40637;SDS011;26336;44.696;10.622;2022-08-01T13:12:08;4.47;;;1.75;;
40637;SDS011;26336;44.696;10.622;2022-08-01T13:18:32;4.30;;;1.70;;
40637;SDS011;26336;44.696;10.622;2022-08-01T13:21:38;1.95;;;1.70;;
40637;SDS011;26336;44.696;10.622;2022-08-01T13:24:42;5.53;;;1.80;;
40637;SDS011;26336;44.696;10.622;2022-08-01T13:27:46;2.40;;;1.40;;
40637;SDS011;26336;44.696;10.622;2022-08-01T13:30:53;2.00;;;1.80;;
40637;SDS011;26336;44.696;10.622;2022-08-01T13:33:58;3.08;;;1.70;;
40637;SDS011;26336;44.696;10.622;2022-08-01T13:37:02;2.55;;;1.55;;
40637;SDS011;26336;44.696;10.622;2022-08-01T13:40:10;2.53;;;1.95;;
40637;SDS011;26336;44.696;10.622;2022-08-01T13:43:14;2.20;;;1.58;;
40637;SDS011;26336;44.696;10.622;2022-08-01T13:46:18;1.92;;;1.38;;
40637;SDS011;26336;44.696;10.622;2022-08-01T13:49:22;2.83;;;1.52;;
40637;SDS011;26336;44.696;10.622;2022-08-01T13:52:26;3.03;;;1.50;;
40637;SDS011;26336;44.696;10.622;2022-08-01T13:55:29;4.18;;;1.42;;
40637;SDS011;26336;44.696;10.622;2022-08-01T13:58:33;3.97;;;2.15;;
40637;SDS011;26336;44.696;10.622;2022-08-01T14:01:38;3.28;;;1.65;;
40637;SDS011;26336;44.696;10.622;2022-08-01T14:04:42;1.70;;;1.50;;
40637;SDS011;26336;44.696;10.622;2022-08-01T14:07:45;3.15;;;1.50;;
40637;SDS011;26336;44.696;10.622;2022-08-01T14:10:49;4.20;;;1.35;;
40637;SDS011;26336;44.696;10.622;2022-08-01T14:13:55;3.28;;;1.45;;
40637;SDS011;26336;44.696;10.622;2022-08-01T14:16:59;1.40;;;1.30;;
40637;SDS011;26336;44.696;10.622;2022-08-01T14:20:03;1.77;;;1.40;;
40637;SDS011;26336;44.696;10.622;2022-08-01T14:23:08;4.55;;;1.60;;
40637;SDS011;26336;44.696;10.622;2022-08-01T14:26:13;2.63;;;1.50;;
40637;SDS011;26336;44.696;10.622;2022-08-01T14:29:16;1.40;;;1.30;;
40637;SDS011;26336;44.696;10.622;2022-08-01T14:32:20;3.95;;;1.40;;
40637;SDS011;26336;44.696;10.622;2022-08-01T14:35:24;1.48;;;1.23;;
40637;SDS011;26336;44.696;10.622;2022-08-01T14:38:28;3.45;;;1.23;;
40637;SDS011;26336;44.696;10.622;2022-08-01T14:41:32;1.95;;;1.35;;
40637;SDS011;26336;44.696;10.622;2022-08-01T14:44:36;1.08;;;1.00;;
40637;SDS011;26336;44.696;10.622;2022-08-01T14:47:43;1.50;;;1.30;;
40637;SDS011;26336;44.696;10.622;2022-08-01T14:50:47;1.75;;;1.00;;
40637;SDS011;26336;44.696;10.622;2022-08-01T14:53:51;3.30;;;0.98;;
40637;SDS011;26336;44.696;10.622;2022-08-01T14:56:56;2.47;;;0.95;;
40637;SDS011;26336;44.696;10.622;2022-08-01T15:00:00;0.82;;;0.80;;
40637;SDS011;26336;44.696;10.622;2022-08-01T15:03:04;2.25;;;0.98;;
40637;SDS011;26336;44.696;10.622;2022-08-01T15:06:07;2.05;;;1.00;;
40637;SDS011;26336;44.696;10.622;2022-08-01T15:09:14;0.93;;;0.80;;
40637;SDS011;26336;44.696;10.622;2022-08-01T15:12:18;3.40;;;1.13;;
40637;SDS011;26336;44.696;10.622;2022-08-01T15:15:22;3.33;;;1.35;;
40637;SDS011;26336;44.696;10.622;2022-08-01T15:18:28;1.35;;;1.08;;
40637;SDS011;26336;44.696;10.622;2022-08-01T15:21:32;1.75;;;1.23;;
40637;SDS011;26336;44.696;10.622;2022-08-01T15:24:36;3.20;;;1.10;;
40637;SDS011;26336;44.696;10.622;2022-08-01T15:27:40;3.28;;;1.42;;
40637;SDS011;26336;44.696;10.622;2022-08-01T15:30:44;3.42;;;1.10;;
40637;SDS011;26336;44.696;10.622;2022-08-01T15:33:49;2.15;;;1.10;;
40637;SDS011;26336;44.696;10.622;2022-08-01T15:36:53;4.03;;;1.42;;
40637;SDS011;26336;44.696;10.622;2022-08-01T15:39:57;2.03;;;1.10;;
40637;SDS011;26336;44.696;10.622;2022-08-01T15:43:01;1.30;;;0.88;;
40637;SDS011;26336;44.696;10.622;2022-08-01T15:46:05;3.33;;;1.10;;
40637;SDS011;26336;44.696;10.622;2022-08-01T15:49:10;1.45;;;1.20;;
40637;SDS011;26336;44.696;10.622;2022-08-01T15:52:14;1.38;;;1.08;;
40637;SDS011;26336;44.696;10.622;2022-08-01T15:55:18;2.00;;;1.20;;
40637;SDS011;26336;44.696;10.622;2022-08-01T15:58:21;3.00;;;1.17;;
40637;SDS011;26336;44.696;10.622;2022-08-01T16:01:26;1.98;;;1.30;;
40637;SDS011;26336;44.696;10.622;2022-08-01T16:04:30;2.38;;;1.40;;
40637;SDS011;26336;44.696;10.622;2022-08-01T16:07:34;2.17;;;1.30;;
40637;SDS011;26336;44.696;10.622;2022-08-01T16:10:38;3.38;;;1.38;;
40637;SDS011;26336;44.696;10.622;2022-08-01T16:13:42;2.53;;;1.30;;
40637;SDS011;26336;44.696;10.622;2022-08-01T16:16:47;2.28;;;1.20;;
40637;SDS011;26336;44.696;10.622;2022-08-01T16:19:51;2.60;;;1.10;;
40637;SDS011;26336;44.696;10.622;2022-08-01T16:22:55;1.85;;;1.40;;
40637;SDS011;26336;44.696;10.622;2022-08-01T16:25:59;4.45;;;1.52;;
40637;SDS011;26336;44.696;10.622;2022-08-01T16:29:03;2.20;;;1.42;;
40637;SDS011;26336;44.696;10.622;2022-08-01T16:32:07;3.10;;;1.42;;
40637;SDS011;26336;44.696;10.622;2022-08-01T16:35:11;3.38;;;1.63;;
40637;SDS011;26336;44.696;10.622;2022-08-01T16:38:15;4.53;;;1.88;;
40637;SDS011;26336;44.696;10.622;2022-08-01T16:41:21;2.10;;;1.40;;
40637;SDS011;26336;44.696;10.622;2022-08-01T16:44:25;2.22;;;1.60;;
40637;SDS011;26336;44.696;10.622;2022-08-01T16:47:29;1.38;;;1.02;;
40637;SDS011;26336;44.696;10.622;2022-08-01T16:50:33;2.63;;;1.27;;
40637;SDS011;26336;44.696;10.622;2022-08-01T16:53:37;1.95;;;1.40;;
40637;SDS011;26336;44.696;10.622;2022-08-01T16:56:41;5.45;;;1.20;;
40637;SDS011;26336;44.696;10.622;2022-08-01T16:59:45;2.30;;;1.80;;
40637;SDS011;26336;44.696;10.622;2022-08-01T17:02:49;2.65;;;1.55;;
40637;SDS011;26336;44.696;10.622;2022-08-01T17:05:53;2.38;;;1.40;;
40637;SDS011;26336;44.696;10.622;2022-08-01T17:08:57;1.75;;;1.20;;
40637;SDS011;26336;44.696;10.622;2022-08-01T17:12:01;1.48;;;1.17;;
40637;SDS011;26336;44.696;10.622;2022-08-01T17:15:05;3.80;;;1.50;;
40637;SDS011;26336;44.696;10.622;2022-08-01T17:18:10;1.55;;;1.40;;
40637;SDS011;26336;44.696;10.622;2022-08-01T17:21:14;2.20;;;1.13;;
40637;SDS011;26336;44.696;10.622;2022-08-01T17:24:18;1.40;;;1.25;;
40637;SDS011;26336;44.696;10.622;2022-08-01T17:27:22;2.55;;;1.20;;
40637;SDS011;26336;44.696;10.622;2022-08-01T17:30:26;3.67;;;1.33;;
40637;SDS011;26336;44.696;10.622;2022-08-01T17:33:30;1.38;;;1.17;;
40637;SDS011;26336;44.696;10.622;2022-08-01T17:36:34;4.82;;;1.02;;
40637;SDS011;26336;44.696;10.622;2022-08-01T17:39:38;1.63;;;1.08;;
40637;SDS011;26336;44.696;10.622;2022-08-01T17:42:42;1.20;;;1.10;;
40637;SDS011;26336;44.696;10.622;2022-08-01T17:45:46;2.90;;;1.50;;
40637;SDS011;26336;44.696;10.622;2022-08-01T17:48:49;2.35;;;1.50;;
40637;SDS011;26336;44.696;10.622;2022-08-01T17:51:53;1.52;;;1.30;;
40637;SDS011;26336;44.696;10.622;2022-08-01T17:54:58;4.38;;;1.30;;
40637;SDS011;26336;44.696;10.622;2022-08-01T17:58:02;1.30;;;1.20;;
40637;SDS011;26336;44.696;10.622;2022-08-01T18:01:07;1.65;;;1.40;;
40637;SDS011;26336;44.696;10.622;2022-08-01T18:04:11;3.03;;;1.30;;
40637;SDS011;26336;44.696;10.622;2022-08-01T18:07:15;3.47;;;1.40;;
40637;SDS011;26336;44.696;10.622;2022-08-01T18:10:21;2.33;;;1.58;;
40637;SDS011;26336;44.696;10.622;2022-08-01T18:13:25;2.40;;;1.27;;
40637;SDS011;26336;44.696;10.622;2022-08-01T18:16:29;2.15;;;1.17;;
40637;SDS011;26336;44.696;10.622;2022-08-01T18:19:33;2.90;;;1.30;;
40637;SDS011;26336;44.696;10.622;2022-08-01T18:22:37;1.77;;;1.30;;
40637;SDS011;26336;44.696;10.622;2022-08-01T18:25:42;2.20;;;1.42;;
40637;SDS011;26336;44.696;10.622;2022-08-01T18:28:47;2.38;;;1.10;;
40637;SDS011;26336;44.696;10.622;2022-08-01T18:31:52;1.60;;;1.20;;
40637;SDS011;26336;44.696;10.622;2022-08-01T18:34:58;3.47;;;1.48;;
40637;SDS011;26336;44.696;10.622;2022-08-01T18:38:02;1.85;;;1.45;;
40637;SDS011;26336;44.696;10.622;2022-08-01T18:41:06;5.90;;;2.72;;
40637;SDS011;26336;44.696;10.622;2022-08-01T18:44:12;4.63;;;2.35;;
40637;SDS011;26336;44.696;10.622;2022-08-01T18:47:17;2.53;;;1.98;;
40637;SDS011;26336;44.696;10.622;2022-08-01T18:50:21;2.03;;;1.52;;
40637;SDS011;26336;44.696;10.622;2022-08-01T18:53:26;3.28;;;1.55;;
40637;SDS011;26336;44.696;10.622;2022-08-01T18:56:30;5.05;;;1.90;;
40637;SDS011;26336;44.696;10.622;2022-08-01T18:59:35;1.70;;;1.60;;